createdAt,value
2023-05-14T00:02:17.598Z,101022.73
2023-05-14T00:04:46.096Z,101018.59
2023-05-14T00:07:14.490Z,101014.28
2023-05-14T00:09:42.871Z,101007.67
2023-05-14T00:12:11.335Z,101003.98
2023-05-14T00:14:39.720Z,101000.23
2023-05-14T00:17:08.720Z,101000.94
2023-05-14T00:19:37.167Z,101001.32
2023-05-14T00:22:05.816Z,100995.03
2023-05-14T00:24:34.997Z,100991.43
2023-05-14T00:27:04.224Z,100992.73
2023-05-14T00:29:32.716Z,100994.80
2023-05-14T00:32:01.256Z,100992.20
2023-05-14T00:34:29.666Z,100993.55
2023-05-14T00:36:58.144Z,100992.85
2023-05-14T00:39:26.463Z,100992.55
2023-05-14T00:41:54.913Z,100987.80
2023-05-14T00:44:23.381Z,100982.48
2023-05-14T00:46:52.625Z,100984.37
2023-05-14T00:49:21.500Z,100986.13
2023-05-14T00:51:49.940Z,100987.36
2023-05-14T00:54:18.540Z,100988.81
2023-05-14T00:56:47.638Z,100988.42
2023-05-14T00:59:16.035Z,100991.77
2023-05-14T01:01:44.672Z,100989.73
2023-05-14T01:04:13.401Z,100992.16
2023-05-14T01:06:52.276Z,100987.94
2023-05-14T01:09:54.089Z,100989.46
2023-05-14T01:12:37.346Z,100988.33
2023-05-14T01:15:11.330Z,100993.13
2023-05-14T01:17:49.357Z,100992.10
2023-05-14T01:20:18.196Z,100992.02
2023-05-14T01:22:46.540Z,100989.15
2023-05-14T01:25:15.444Z,100990.69
2023-05-14T01:28:19.452Z,100987.42
2023-05-14T01:31:01.181Z,100984.48
2023-05-14T01:33:31.956Z,100982.73
2023-05-14T01:36:00.996Z,100980.77
2023-05-14T01:38:34.322Z,100982.18
2023-05-14T01:41:03.617Z,100985.20
2023-05-14T01:43:32.581Z,100976.15
2023-05-14T01:46:01.193Z,100976.98
2023-05-14T01:48:30.492Z,100973.46
2023-05-14T01:50:58.881Z,100973.25
2023-05-14T01:53:27.428Z,100974.63
2023-05-14T01:55:55.875Z,100976.52
2023-05-14T01:58:24.260Z,100974.04
2023-05-14T02:00:52.636Z,100976.59
2023-05-14T02:03:20.974Z,100980.17
2023-05-14T02:05:49.410Z,100975.98
2023-05-14T02:08:17.716Z,100974.73
2023-05-14T02:10:46.163Z,100974.52
2023-05-14T02:13:14.715Z,100970.88
2023-05-14T02:15:43.275Z,100972.52
2023-05-14T02:18:11.808Z,100968.05
2023-05-14T02:20:40.411Z,100969.95
2023-05-14T02:23:08.740Z,100968.15
2023-05-14T02:25:37.986Z,100964.33
2023-05-14T02:28:06.407Z,100963.94
2023-05-14T02:30:34.826Z,100961.02
2023-05-14T02:33:03.404Z,100959.14
2023-05-14T02:35:31.933Z,100954.92
2023-05-14T02:38:00.352Z,100954.09
2023-05-14T02:40:28.803Z,100953.71
2023-05-14T02:42:57.216Z,100958.66
2023-05-14T02:45:25.638Z,100959.75
2023-05-14T02:47:54.052Z,100962.11
2023-05-14T02:50:22.794Z,100964.27
2023-05-14T02:52:51.482Z,100963.52
2023-05-14T02:55:19.992Z,100964.98
2023-05-14T02:57:48.450Z,100963.81
2023-05-14T03:00:17.051Z,100962.59
2023-05-14T03:02:45.920Z,100965.58
2023-05-14T03:05:14.835Z,100962.98
2023-05-14T03:07:43.238Z,100962.86
2023-05-14T03:10:11.615Z,100963.30
2023-05-14T03:12:40.035Z,100960.34
2023-05-14T03:15:09.099Z,100963.52
2023-05-14T03:17:37.600Z,100965.55
2023-05-14T03:20:06.686Z,100963.45
2023-05-14T03:22:35.079Z,100962.26
2023-05-14T03:25:03.606Z,100958.90
2023-05-14T03:27:31.902Z,100958.38
2023-05-14T03:30:00.956Z,100956.61
2023-05-14T03:32:30.107Z,100959.41
2023-05-14T03:34:58.590Z,100955.64
2023-05-14T03:37:26.884Z,100953.81
2023-05-14T03:39:55.249Z,100953.20
2023-05-14T03:42:23.536Z,100952.92
2023-05-14T03:44:51.907Z,100952.05
2023-05-14T03:47:20.313Z,100952.47
2023-05-14T03:49:48.691Z,100950.87
2023-05-14T03:52:17.796Z,100944.88
2023-05-14T03:54:46.148Z,100939.23
2023-05-14T03:57:14.572Z,100938.51
2023-05-14T03:59:42.906Z,100935.30
2023-05-14T04:02:11.364Z,100937.77
2023-05-14T04:04:40.513Z,100937.27
2023-05-14T04:07:09.282Z,100938.48
2023-05-14T04:09:37.762Z,100936.13
2023-05-14T04:12:06.947Z,100938.28
2023-05-14T04:14:35.824Z,100936.23
2023-05-14T04:17:04.307Z,100934.27
2023-05-14T04:19:32.671Z,100938.26
2023-05-14T04:22:01.189Z,100939.58
2023-05-14T04:24:29.812Z,100942.47
2023-05-14T04:26:58.338Z,100945.29
2023-05-14T04:29:26.796Z,100949.71
2023-05-14T04:31:55.331Z,100949.98
2023-05-14T04:34:23.817Z,100949.88
2023-05-14T04:36:52.548Z,100951.58
2023-05-14T04:39:20.931Z,100954.35
2023-05-14T04:41:49.347Z,100958.58
2023-05-14T04:44:17.706Z,100960.29
2023-05-14T04:46:46.272Z,100959.78
2023-05-14T04:49:14.762Z,100956.94
2023-05-14T04:51:43.449Z,100956.97
2023-05-14T04:54:12.032Z,100953.69
2023-05-14T04:56:40.357Z,100950.34
2023-05-14T04:59:09.004Z,100947.67
2023-05-14T05:01:37.676Z,100950.46
2023-05-14T05:04:06.126Z,100948.43
2023-05-14T05:06:34.697Z,100949.71
2023-05-14T05:09:03.217Z,100948.12
2023-05-14T05:11:31.575Z,100949.42
2023-05-14T05:14:00.007Z,100947.52
2023-05-14T05:16:28.641Z,100944.55
2023-05-14T05:18:57.308Z,100943.30
2023-05-14T05:21:26.227Z,100940.71
2023-05-14T05:23:54.597Z,100931.77
2023-05-14T05:26:23.369Z,100932.89
2023-05-14T05:28:51.742Z,100936.77
2023-05-14T05:31:20.237Z,100942.42
2023-05-14T05:33:48.725Z,100940.34
2023-05-14T05:36:17.474Z,100940.41
2023-05-14T05:38:45.935Z,100946.67
2023-05-14T05:41:14.314Z,100943.81
2023-05-14T05:43:42.878Z,100942.71
2023-05-14T05:46:12.219Z,100942.38
2023-05-14T05:48:40.684Z,100942.59
2023-05-14T05:51:09.171Z,100944.47
2023-05-14T05:53:37.617Z,100941.80
2023-05-14T05:56:06.799Z,100940.56
2023-05-14T05:58:35.076Z,100944.46
2023-05-14T06:01:03.588Z,100943.42
2023-05-14T06:03:31.973Z,100943.46
2023-05-14T06:06:00.548Z,100945.38
2023-05-14T06:08:28.917Z,100940.31
2023-05-14T06:10:57.400Z,100941.28
2023-05-14T06:13:25.860Z,100943.52
2023-05-14T06:15:54.390Z,100943.15
2023-05-14T06:18:22.944Z,100945.81
2023-05-14T06:20:53.145Z,100944.65
2023-05-14T06:23:23.955Z,100942.51
2023-05-14T06:25:54.933Z,100939.60
2023-05-14T06:28:24.330Z,100938.84
2023-05-14T06:30:54.321Z,100938.91
2023-05-14T06:33:30.142Z,100937.72
2023-05-14T06:36:00.091Z,100933.48
2023-05-14T06:38:28.721Z,100934.21
2023-05-14T06:40:57.131Z,100932.96
2023-05-14T06:43:25.834Z,100937.71
2023-05-14T06:45:54.963Z,100935.14
2023-05-14T06:48:23.931Z,100934.71
2023-05-14T06:50:52.646Z,100931.06
2023-05-14T06:53:21.529Z,100933.41
2023-05-14T06:55:50.428Z,100934.55
2023-05-14T06:58:18.780Z,100931.71
2023-05-14T07:00:47.170Z,100930.81
2023-05-14T07:03:15.673Z,100928.35
2023-05-14T07:05:46.187Z,100922.51
2023-05-14T07:08:14.710Z,100921.68
2023-05-14T07:10:43.262Z,100921.52
2023-05-14T07:13:11.860Z,100920.27
2023-05-14T07:15:40.709Z,100923.08
2023-05-14T07:18:09.262Z,100923.55
2023-05-14T07:20:37.791Z,100922.48
2023-05-14T07:23:06.487Z,100918.46
2023-05-14T07:25:34.994Z,100913.55
2023-05-14T07:28:03.427Z,100918.03
2023-05-14T07:30:31.886Z,100917.28
2023-05-14T07:33:00.321Z,100912.94
2023-05-14T07:35:28.758Z,100911.83
2023-05-14T07:37:57.460Z,100912.14
2023-05-14T07:40:26.561Z,100909.02
2023-05-14T07:42:55.245Z,100909.32
2023-05-14T07:45:23.725Z,100906.73
2023-05-14T07:47:52.452Z,100906.66
2023-05-14T07:50:21.520Z,100904.10
2023-05-14T07:52:50.221Z,100905.09
2023-05-14T07:55:18.785Z,100899.44
2023-05-14T07:57:47.706Z,100896.80
2023-05-14T08:00:17.075Z,100895.27
2023-05-14T08:02:45.831Z,100893.01
2023-05-14T08:05:14.555Z,100892.02
2023-05-14T08:07:43.648Z,100886.05
2023-05-14T08:10:12.372Z,100880.79
2023-05-14T08:12:40.900Z,100880.09
2023-05-14T08:15:09.867Z,100877.71
2023-05-14T08:17:38.382Z,100870.73
2023-05-14T08:20:07.845Z,100867.92
2023-05-14T08:22:36.242Z,100860.30
2023-05-14T08:25:06.340Z,100859.48
2023-05-14T08:27:34.823Z,100858.98
2023-05-14T08:30:03.674Z,100860.44
2023-05-14T08:32:32.178Z,100858.34
2023-05-14T08:35:00.723Z,100852.65
2023-05-14T08:37:29.305Z,100855.74
2023-05-14T08:39:57.687Z,100853.64
2023-05-14T08:42:29.046Z,100850.23
2023-05-14T08:45:02.522Z,100849.70
2023-05-14T08:47:34.308Z,100845.59
2023-05-14T08:50:08.629Z,100846.71
2023-05-14T08:52:37.838Z,100844.19
2023-05-14T08:55:07.136Z,100847.61
2023-05-14T08:57:35.990Z,100848.69
2023-05-14T09:00:14.567Z,100840.25
2023-05-14T09:02:45.298Z,100837.38
2023-05-14T09:05:15.476Z,100833.60
2023-05-14T09:07:44.078Z,100831.61
2023-05-14T09:10:12.644Z,100832.83
2023-05-14T09:12:41.404Z,100829.19
2023-05-14T09:15:10.058Z,100827.83
2023-05-14T09:17:38.394Z,100825.56
2023-05-14T09:20:07.684Z,100827.22
2023-05-14T09:22:36.221Z,100825.67
2023-05-14T09:25:10.118Z,100824.48
2023-05-14T09:27:39.220Z,100822.40
2023-05-14T09:30:12.777Z,100820.09
2023-05-14T09:32:47.325Z,100821.19
2023-05-14T09:35:23.961Z,100818.07
2023-05-14T09:37:54.645Z,100815.11
2023-05-14T09:40:27.783Z,100814.20
2023-05-14T09:42:56.518Z,100809.59
2023-05-14T09:45:27.652Z,100807.61
2023-05-14T09:47:56.206Z,100805.50
2023-05-14T09:50:29.385Z,100811.02
2023-05-14T09:52:59.553Z,100807.83
2023-05-14T09:55:28.300Z,100803.98
2023-05-14T09:57:57.028Z,100805.36
2023-05-14T10:00:26.507Z,100797.90
2023-05-14T10:02:57.145Z,100795.48
2023-05-14T10:05:27.126Z,100795.33
2023-05-14T10:08:00.401Z,100788.85
2023-05-14T10:10:30.704Z,100785.38
2023-05-14T10:13:08.295Z,100784.24
2023-05-14T10:20:01.993Z,100786.80
2023-05-14T10:22:35.304Z,100784.59
2023-05-14T10:25:15.834Z,100779.16
2023-05-14T10:27:53.103Z,100774.81
2023-05-14T10:30:30.533Z,100777.73
2023-05-14T10:33:12.090Z,100776.50
2023-05-14T10:36:02.591Z,100768.55
2023-05-14T10:38:36.173Z,100770.80
2023-05-14T10:41:13.806Z,100767.81
2023-05-14T10:43:44.618Z,100762.69
2023-05-14T10:46:14.390Z,100754.15
2023-05-14T10:48:43.972Z,100757.52
2023-05-14T10:51:13.227Z,100754.33
2023-05-14T10:53:59.076Z,100749.66
2023-05-14T10:56:29.601Z,100742.89
2023-05-14T10:59:00.422Z,100736.90
2023-05-14T11:01:29.748Z,100728.24
2023-05-14T11:03:58.956Z,100726.10
2023-05-14T11:06:28.505Z,100720.56
2023-05-14T11:09:01.199Z,100717.25
2023-05-14T11:11:34.233Z,100709.59
2023-05-14T11:14:04.768Z,100703.95
2023-05-14T11:16:34.671Z,100704.98
2023-05-14T11:19:05.264Z,100702.52
2023-05-14T11:21:33.942Z,100704.00
2023-05-14T11:24:04.019Z,100695.87
2023-05-14T11:26:33.578Z,100692.44
2023-05-14T11:29:02.888Z,100683.94
2023-05-14T11:31:31.954Z,100678.62
2023-05-14T11:34:01.331Z,100676.20
2023-05-14T11:36:29.895Z,100669.25
2023-05-14T11:38:58.880Z,100665.37
2023-05-14T11:41:28.419Z,100662.26
2023-05-14T11:43:58.853Z,100652.96
2023-05-14T11:46:28.890Z,100643.37
2023-05-14T11:48:57.526Z,100646.95
2023-05-14T11:51:26.412Z,100641.82
2023-05-14T11:53:55.522Z,100642.04
2023-05-14T11:56:25.366Z,100639.65
2023-05-14T11:59:11.183Z,100638.02
2023-05-14T12:01:39.973Z,100632.69
2023-05-14T12:04:11.038Z,100625.13
2023-05-14T12:06:41.594Z,100612.77
2023-05-14T12:09:13.022Z,100608.44
2023-05-14T12:11:42.058Z,100612.14
2023-05-14T12:14:22.537Z,100607.78
2023-05-14T12:16:52.064Z,100609.73
2023-05-14T12:19:27.397Z,100596.09
2023-05-14T12:21:56.019Z,100598.87
2023-05-14T12:24:27.633Z,100601.23
2023-05-14T12:26:57.711Z,100597.84
2023-05-14T12:29:27.590Z,100599.11
2023-05-14T12:31:59.721Z,100598.35
2023-05-14T12:34:28.673Z,100594.95
2023-05-14T12:36:57.241Z,100591.47
2023-05-14T12:39:25.758Z,100592.61
2023-05-14T12:41:56.726Z,100586.84
2023-05-14T12:44:26.185Z,100583.20
2023-05-14T12:46:55.625Z,100590.61
2023-05-14T12:49:26.030Z,100583.41
2023-05-14T12:52:04.492Z,100579.42
2023-05-14T12:54:44.732Z,100580.45
2023-05-14T12:57:15.462Z,100578.20
2023-05-14T12:59:47.832Z,100571.19
2023-05-14T13:02:20.736Z,100569.29
2023-05-14T13:04:52.733Z,100567.48
2023-05-14T13:07:24.896Z,100564.58
2023-05-14T13:09:56.349Z,100571.75
2023-05-14T13:12:28.542Z,100570.07
2023-05-14T13:15:00.876Z,100566.17
2023-05-14T13:17:32.639Z,100564.55
2023-05-14T13:20:05.932Z,100559.70
2023-05-14T13:22:41.108Z,100558.61
2023-05-14T13:25:11.151Z,100553.39
2023-05-14T13:27:41.520Z,100550.81
2023-05-14T13:30:13.971Z,100549.41
2023-05-14T13:32:46.489Z,100552.14
2023-05-14T13:35:20.335Z,100546.91
2023-05-14T13:37:53.680Z,100546.27
2023-05-14T13:40:26.099Z,100540.69
2023-05-14T13:42:57.950Z,100531.93
2023-05-14T13:45:29.808Z,100529.09
2023-05-14T13:48:02.943Z,100526.06
2023-05-14T13:50:33.477Z,100525.85
2023-05-14T13:53:14.146Z,100521.63
2023-05-14T13:55:46.675Z,100518.27
2023-05-14T14:04:55.096Z,100502.54
2023-05-14T14:07:23.717Z,100494.16
2023-05-14T14:09:52.318Z,100491.68
2023-05-14T14:12:21.428Z,100490.08
2023-05-14T14:14:49.970Z,100483.82
2023-05-14T14:24:05.970Z,100458.62
2023-05-14T14:26:33.128Z,100463.23
2023-05-14T14:29:00.311Z,100461.07
2023-05-14T14:31:28.224Z,100460.46
2023-05-14T14:33:55.348Z,100460.70
2023-05-14T14:36:22.491Z,100455.57
2023-05-14T14:38:49.722Z,100452.60
2023-05-14T14:41:16.998Z,100449.21
2023-05-14T14:43:44.305Z,100455.27
2023-05-14T14:46:11.542Z,100455.24
2023-05-14T14:48:41.070Z,100457.06
2023-05-14T14:51:09.363Z,100452.98
2023-05-14T14:53:37.220Z,100446.11
2023-05-14T14:56:05.580Z,100449.91
2023-05-14T14:58:32.936Z,100446.52
2023-05-14T15:01:00.770Z,100444.92
2023-05-14T15:03:30.650Z,100445.13
2023-05-14T15:05:58.270Z,100439.02
2023-05-14T15:08:27.133Z,100435.80
2023-05-14T15:10:56.243Z,100438.70
2023-05-14T15:13:26.587Z,100440.96
2023-05-14T15:15:54.462Z,100440.35
2023-05-14T15:18:21.937Z,100435.79
2023-05-14T15:20:49.733Z,100434.78
2023-05-14T15:23:17.771Z,100435.70
2023-05-14T15:25:46.622Z,100431.27
2023-05-14T15:28:14.425Z,100429.38
2023-05-14T15:30:43.095Z,100425.69
2023-05-14T15:33:10.503Z,100424.89
2023-05-14T15:35:37.925Z,100417.48
2023-05-14T15:38:08.050Z,100422.64
2023-05-14T15:40:37.698Z,100414.54
2023-05-14T15:43:05.293Z,100413.30
2023-05-14T15:45:32.441Z,100410.86
2023-05-14T15:47:59.548Z,100412.45
2023-05-14T15:50:27.156Z,100418.61
2023-05-14T15:53:12.419Z,100419.17
2023-05-14T15:55:41.040Z,100415.77
2023-05-14T15:58:09.511Z,100410.24
2023-05-14T16:00:38.213Z,100407.44
2023-05-14T16:03:06.976Z,100405.73
2023-05-14T16:05:35.625Z,100401.61
2023-05-14T16:08:04.545Z,100402.83
2023-05-14T16:10:32.929Z,100401.52
2023-05-14T16:13:01.443Z,100400.02
2023-05-14T16:15:29.993Z,100398.20
2023-05-14T16:17:58.632Z,100395.09
2023-05-14T16:20:27.293Z,100397.43
2023-05-14T16:22:56.071Z,100398.71
2023-05-14T16:25:24.928Z,100397.45
2023-05-14T16:27:53.384Z,100390.08
2023-05-14T16:30:22.040Z,100378.42
2023-05-14T16:32:50.675Z,100375.52
2023-05-14T16:35:19.252Z,100369.67
2023-05-14T16:37:48.115Z,100369.13
2023-05-14T16:40:16.866Z,100366.06
2023-05-14T16:42:49.436Z,100364.14
2023-05-14T16:45:18.401Z,100366.73
2023-05-14T16:47:49.780Z,100368.60
2023-05-14T16:50:18.482Z,100369.90
2023-05-14T16:52:47.047Z,100368.15
2023-05-14T16:55:16.102Z,100364.26
2023-05-14T16:57:45.024Z,100360.20
2023-05-14T17:00:15.485Z,100357.37
2023-05-14T17:02:45.214Z,100361.19
2023-05-14T17:05:17.775Z,100358.73
2023-05-14T17:07:46.508Z,100352.34
2023-05-14T17:10:17.688Z,100354.73
2023-05-14T17:12:47.648Z,100352.09
2023-05-14T17:15:14.993Z,100350.56
2023-05-14T17:17:43.883Z,100349.35
2023-05-14T17:20:14.159Z,100345.84
2023-05-14T17:22:44.795Z,100353.45
2023-05-14T17:25:13.222Z,100355.87
2023-05-14T17:27:41.629Z,100354.88
2023-05-14T17:30:10.990Z,100353.67
2023-05-14T17:32:39.608Z,100356.06
2023-05-14T17:35:14.290Z,100357.36
2023-05-14T17:37:43.332Z,100355.46
2023-05-14T17:40:13.811Z,100348.68
2023-05-14T17:42:46.024Z,100346.77
2023-05-14T17:45:15.948Z,100346.83
2023-05-14T17:47:47.692Z,100347.04
2023-05-14T17:50:16.844Z,100347.63
2023-05-14T17:57:04.662Z,100342.87
2023-05-14T17:59:36.512Z,100344.90
2023-05-14T18:02:05.978Z,100342.61
2023-05-14T18:04:35.995Z,100340.68
2023-05-14T18:07:04.926Z,100337.67
2023-05-14T18:09:33.272Z,100337.86
2023-05-14T18:12:01.582Z,100342.71
2023-05-14T18:14:29.979Z,100339.35
2023-05-14T18:16:58.432Z,100341.33
2023-05-14T18:19:27.026Z,100340.10
2023-05-14T18:21:58.064Z,100343.15
2023-05-14T18:24:29.197Z,100343.52
2023-05-14T18:26:58.192Z,100348.02
2023-05-14T18:29:26.561Z,100342.83
2023-05-14T18:31:55.034Z,100346.61
2023-05-14T18:34:27.378Z,100349.83
2023-05-14T18:36:59.059Z,100345.73
2023-05-14T18:39:29.596Z,100342.70
2023-05-14T18:41:58.703Z,100344.84
2023-05-14T18:44:27.530Z,100347.36
2023-05-14T18:47:06.633Z,100341.98
2023-05-14T18:49:39.095Z,100340.58
2023-05-14T18:52:10.964Z,100341.64
2023-05-14T18:54:39.425Z,100346.11
2023-05-14T18:57:08.415Z,100345.76
2023-05-14T18:59:37.092Z,100346.13
2023-05-14T19:02:09.277Z,100346.65
2023-05-14T19:04:51.157Z,100342.71
2023-05-14T19:07:22.169Z,100335.91
2023-05-14T19:09:50.959Z,100339.65
2023-05-14T19:12:21.078Z,100337.12
2023-05-14T19:14:49.574Z,100337.84
2023-05-14T19:17:19.954Z,100333.55
2023-05-14T19:19:49.135Z,100326.20
2023-05-14T19:22:17.732Z,100327.61
2023-05-14T19:24:46.068Z,100320.28
2023-05-14T19:27:17.046Z,100319.39
2023-05-14T19:29:45.573Z,100316.16
2023-05-14T19:32:14.034Z,100313.48
2023-05-14T19:34:42.624Z,100314.35
2023-05-14T19:37:11.615Z,100313.09
2023-05-14T19:39:40.702Z,100312.18
2023-05-14T19:42:09.883Z,100311.28
2023-05-14T19:44:38.934Z,100311.80
2023-05-14T19:47:08.093Z,100308.94
2023-05-14T19:49:37.973Z,100309.81
2023-05-14T19:52:06.626Z,100307.30
2023-05-14T19:54:35.500Z,100304.60
2023-05-14T19:57:07.332Z,100310.30
2023-05-14T19:59:36.301Z,100309.56
2023-05-14T20:02:05.916Z,100310.44
2023-05-14T20:04:40.324Z,100310.60
2023-05-14T20:07:08.955Z,100306.48
2023-05-14T20:09:39.756Z,100305.40
2023-05-14T20:12:09.649Z,100303.77
2023-05-14T20:14:40.974Z,100300.17
2023-05-14T20:17:13.111Z,100300.86
2023-05-14T20:19:42.154Z,100297.64
2023-05-14T20:22:12.865Z,100295.13
2023-05-14T20:24:44.520Z,100297.80
2023-05-14T20:27:13.445Z,100296.52
2023-05-14T20:29:42.389Z,100295.27
2023-05-14T20:36:30.174Z,100285.95
2023-05-14T20:39:00.733Z,100283.97
2023-05-14T20:41:29.091Z,100278.08
2023-05-14T20:44:00.591Z,100277.70
2023-05-14T20:46:31.738Z,100271.27
2023-05-14T20:49:03.020Z,100267.86
2023-05-14T20:51:32.979Z,100265.90
2023-05-14T20:54:02.784Z,100264.64
2023-05-14T20:56:31.318Z,100261.77
2023-05-14T20:59:00.505Z,100257.13
2023-05-14T21:01:31.661Z,100255.34
2023-05-14T21:04:01.642Z,100250.52
2023-05-14T21:06:30.468Z,100247.27
2023-05-14T21:08:59.206Z,100245.85
2023-05-14T21:15:46.094Z,100241.36
2023-05-14T21:18:14.457Z,100237.79
2023-05-14T21:20:43.547Z,100238.32
2023-05-14T21:23:13.136Z,100236.35
2023-05-14T21:25:41.567Z,100232.60
2023-05-14T21:28:10.393Z,100230.08
2023-05-14T21:30:39.014Z,100231.68
2023-05-14T21:33:07.971Z,100232.91
2023-05-14T21:35:36.822Z,100231.29
2023-05-14T21:38:05.284Z,100232.17
2023-05-14T21:40:33.570Z,100227.35
2023-05-14T21:43:02.086Z,100221.98
2023-05-14T21:45:31.235Z,100223.21
2023-05-14T21:48:00.024Z,100220.52
2023-05-14T21:50:28.445Z,100220.52
2023-05-14T21:52:57.931Z,100215.33
2023-05-14T21:55:28.188Z,100214.77
2023-05-14T21:57:57.794Z,100213.16
2023-05-14T22:00:26.311Z,100206.55
2023-05-14T22:02:55.725Z,100205.80
2023-05-14T22:05:24.798Z,100201.70
2023-05-14T22:07:53.959Z,100197.75
2023-05-14T22:10:23.277Z,100194.88
2023-05-14T22:12:52.203Z,100193.09
2023-05-14T22:15:21.103Z,100192.73
2023-05-14T22:17:50.759Z,100193.06
2023-05-14T22:20:19.333Z,100191.97
2023-05-14T22:22:48.029Z,100189.60
2023-05-14T22:25:17.752Z,100185.14
2023-05-14T22:27:46.366Z,100186.37
2023-05-14T22:30:15.187Z,100182.97
2023-05-14T22:32:44.069Z,100179.39
2023-05-14T22:35:13.133Z,100173.84
2023-05-14T22:37:42.796Z,100168.84
2023-05-14T22:40:13.917Z,100164.35
2023-05-14T22:42:42.295Z,100162.40
2023-05-14T22:45:11.628Z,100161.83
2023-05-14T22:47:41.042Z,100158.42
2023-05-14T22:50:12.466Z,100156.64
2023-05-14T22:52:41.766Z,100153.95
2023-05-14T22:55:12.833Z,100150.38
2023-05-14T22:57:44.871Z,100148.05
2023-05-14T23:00:15.841Z,100143.75
2023-05-14T23:02:47.913Z,100141.95
2023-05-14T23:05:19.528Z,100136.24
2023-05-14T23:07:50.365Z,100134.43
2023-05-14T23:10:20.724Z,100131.91
2023-05-14T23:12:50.795Z,100128.88
2023-05-14T23:15:20.946Z,100122.79
2023-05-14T23:17:52.646Z,100120.27
2023-05-14T23:20:23.932Z,100119.89
2023-05-14T23:22:55.901Z,100116.67
2023-05-14T23:25:27.958Z,100110.27
2023-05-14T23:27:58.919Z,100106.67
2023-05-14T23:30:30.962Z,100105.25
2023-05-14T23:33:01.466Z,100097.91
2023-05-14T23:35:34.163Z,100095.94
2023-05-14T23:38:06.321Z,100095.04
2023-05-14T23:40:37.872Z,100094.15
2023-05-14T23:43:09.345Z,100092.01
2023-05-14T23:45:40.382Z,100085.23
2023-05-14T23:48:10.553Z,100080.95
2023-05-14T23:50:43.015Z,100083.63
2023-05-14T23:53:14.904Z,100080.96
